Time;durP1;ratioP1;P1;durP2;ratioP2;P2;SDS_P1;SDS_P2;PMS_P1;PMS_P2;Temp;Humidity;BMP_temperature;BMP_pressure;BME280_temperature;BME280_humidity;BME280_pressure;Samples;Min_cycle;Max_cycle;Signal;HPM_P1;HPM_P2
2022/09/08 00:00:13;;;;;;;3.42;1.40;;;;;;;15.05;68.39;101198.75;2040782;29;20046;-75
2022/09/08 00:01:21;;;;;;;1.52;1.10;;;;;;;15.06;68.51;101192.22;2050720;28;20047;-75
2022/09/08 00:02:24;;;;;;;3.05;1.48;;;;;;;15.04;68.55;101194.44;2048153;29;20496;-74
2022/09/08 00:03:30;;;;;;;2.17;1.05;;;;;;;15.06;68.24;101189.50;2055004;28;20034;-75
2022/09/08 00:04:35;;;;;;;2.78;1.30;;;;;;;15.03;68.48;101194.72;2048466;28;20070;-75
2022/09/08 00:06:04;;;;;;;2.28;1.20;;;;;;;15.03;68.00;101194.72;2041003;28;20079;-75
2022/09/08 00:07:09;;;;;;;3.67;1.35;;;;;;;15.05;68.00;101181.69;2053896;28;20034;-75
2022/09/08 00:08:20;;;;;;;4.70;1.23;;;;;;;15.04;68.15;101188.22;2063505;28;20050;-75
2022/09/08 00:09:22;;;;;;;2.33;1.10;;;;;;;15.05;68.31;101187.09;2055531;28;20061;-75
2022/09/08 00:10:30;;;;;;;3.55;1.48;;;;;;;15.06;67.94;101192.22;2041209;28;20036;-74
2022/09/08 00:11:41;;;;;;;2.80;1.33;;;;;;;15.06;68.04;101189.50;2042157;28;20048;-74
2022/09/08 00:12:48;;;;;;;3.15;1.52;;;;;;;15.06;68.20;101189.50;2056858;28;20482;-75
2022/09/08 00:13:53;;;;;;;3.45;1.77;;;;;;;15.09;68.28;101187.31;2063984;28;20101;-75
2022/09/08 00:15:03;;;;;;;4.13;1.52;;;;;;;15.07;68.47;101191.13;2063880;28;20050;-74
2022/09/08 00:16:07;;;;;;;4.72;1.65;;;;;;;15.06;68.77;101191.41;2049543;28;20047;-75
2022/09/08 00:17:14;;;;;;;1.98;1.30;;;;;;;15.06;68.81;101188.72;2049519;28;20807;-73
2022/09/08 00:18:22;;;;;;;5.82;1.70;;;;;;;15.08;68.90;101181.09;2055448;28;20046;-75
2022/09/08 00:19:27;;;;;;;3.42;1.90;;;;;;;15.08;69.06;101178.41;2064828;28;20553;-74
2022/09/08 00:20:31;;;;;;;3.47;1.70;;;;;;;15.09;68.97;101188.13;2062433;28;20585;-75
2022/09/08 00:21:42;;;;;;;4.93;2.00;;;;;;;15.06;69.19;101181.38;2054962;28;20059;-74
2022/09/08 00:22:46;;;;;;;11.02;1.80;;;;;;;15.05;69.79;101179.78;2049907;28;20055;-75
2022/09/08 00:23:51;;;;;;;2.45;1.60;;;;;;;15.01;69.63;101183.38;2047533;28;20305;-74
2022/09/08 00:24:54;;;;;;;4.18;1.70;;;;;;;14.99;69.70;101177.44;2033169;29;20429;-74
2022/09/08 00:25:58;;;;;;;3.97;1.70;;;;;;;15.01;70.02;101176.06;2033126;28;20056;-76
2022/09/08 00:27:04;;;;;;;2.63;1.45;;;;;;;15.01;69.99;101172.56;2048797;28;20522;-75
2022/09/08 00:28:06;;;;;;;3.83;1.90;;;;;;;14.96;70.22;101181.53;2040791;29;20058;-74
2022/09/08 00:29:08;;;;;;;5.15;1.83;;;;;;;14.97;70.53;101176.91;2040345;28;20515;-74
2022/09/08 00:30:14;;;;;;;3.53;2.00;;;;;;;14.94;70.54;101172.09;2048193;28;20046;-75
2022/09/08 00:31:24;;;;;;;2.67;1.63;;;;;;;14.87;70.93;101169.75;2048968;28;20050;-74
2022/09/08 00:32:26;;;;;;;3.63;1.50;;;;;;;14.84;70.83;101173.84;2051107;28;20519;-74
2022/09/08 00:33:36;;;;;;;4.82;1.60;;;;;;;14.84;70.45;101175.75;2046601;28;20495;-74
2022/09/08 00:34:44;;;;;;;2.50;1.35;;;;;;;14.86;70.31;101173.56;2049980;28;20035;-74
2022/09/08 00:35:48;;;;;;;5.15;1.20;;;;;;;14.87;70.05;101177.88;2046758;28;20048;-74
2022/09/08 00:36:50;;;;;;;3.55;1.30;;;;;;;14.87;69.34;101180.59;2040287;28;20532;-74
2022/09/08 00:37:59;;;;;;;4.28;1.08;;;;;;;14.88;68.94;101182.22;2056591;28;20058;-73
2022/09/08 00:39:02;;;;;;;2.92;1.20;;;;;;;14.86;69.10;101184.41;2063816;28;20057;-74
2022/09/08 00:40:09;;;;;;;1.60;1.20;;;;;;;14.86;68.89;101181.69;2063864;28;20045;-74
2022/09/08 00:41:16;;;;;;;;;;;;;;;14.84;68.80;101187.38;2048596;28;20051;-74
2022/09/08 00:42:26;;;;;;;3.08;1.10;;;;;;;14.86;68.66;101186.31;2044746;28;19938;-74
2022/09/08 00:43:34;;;;;;;3.47;1.10;;;;;;;14.82;68.41;101189.59;2048148;28;20138;-74
2022/09/08 00:44:49;;;;;;;1.83;0.95;;;;;;;14.82;68.17;101183.38;2047425;28;20050;-74
2022/09/08 00:45:51;;;;;;;2.47;1.10;;;;;;;14.81;68.16;101195.28;2050445;28;20058;-74
2022/09/08 00:46:57;;;;;;;1.52;0.98;;;;;;;14.83;67.90;101183.06;2055987;28;20058;-74
2022/09/08 00:48:07;;;;;;;4.93;1.15;;;;;;;14.82;67.99;101189.59;2055620;28;20050;-74
2022/09/08 00:49:20;;;;;;;1.77;0.98;;;;;;;14.81;67.90;101185.25;2056891;28;20049;-74
2022/09/08 00:50:26;;;;;;;3.05;1.10;;;;;;;14.84;67.98;101189.28;2048096;28;20035;-74
2022/09/08 00:51:31;;;;;;;1.92;1.10;;;;;;;14.81;67.24;101181.75;2056908;28;20509;-74
2022/09/08 00:52:43;;;;;;;2.05;0.90;;;;;;;14.80;67.27;101190.97;2051279;28;20530;-73
2022/09/08 00:53:50;;;;;;;1.65;0.95;;;;;;;14.79;67.36;101183.97;2045267;28;20463;-75
2022/09/08 00:54:53;;;;;;;1.50;0.70;;;;;;;14.79;67.11;101186.66;2056348;28;20130;-75
2022/09/08 00:55:55;;;;;;;2.28;0.80;;;;;;;14.78;67.34;101193.16;2040543;28;20047;-76
2022/09/08 00:56:59;;;;;;;1.58;1.00;;;;;;;14.75;67.04;101194.56;2036590;29;20046;-75
2022/09/08 00:58:06;;;;;;;2.38;0.90;;;;;;;14.77;66.81;101186.13;2050175;28;20043;-76
2022/09/08 00:59:08;;;;;;;1.67;0.98;;;;;;;14.75;66.52;101194.56;2055565;28;20034;-73
2022/09/08 01:00:18;;;;;;;0.82;0.70;;;;;;;14.76;66.41;101192.66;2056021;28;20035;-74
2022/09/08 01:01:28;;;;;;;2.25;0.90;;;;;;;14.77;66.28;101191.56;2047998;28;20078;-73
2022/09/08 01:02:33;;;;;;;3.17;1.05;;;;;;;14.79;66.19;101194.78;2033998;29;20036;-75
2022/09/08 01:03:44;;;;;;;1.30;0.80;;;;;;;14.78;66.41;101190.44;2045002;28;20051;-74
2022/09/08 01:04:48;;;;;;;2.45;0.95;;;;;;;14.78;66.73;101182.31;2057073;28;20077;-74
2022/09/08 01:05:50;;;;;;;2.47;0.90;;;;;;;14.79;66.65;101173.94;2049595;28;20047;-74
2022/09/08 01:13:18;;;;;;;1.92;1.00;;;;;;;14.79;67.16;101183.97;2053554;28;20030;-74
2022/09/08 01:14:48;;;;;;;2.15;0.90;;;;;;;14.75;67.17;101177.50;2048739;28;20422;-74
2022/09/08 01:15:53;;;;;;;1.63;0.80;;;;;;;14.79;66.91;101178.53;2054848;28;20022;-74
2022/09/08 01:17:14;;;;;;;3.13;0.98;;;;;;;14.80;67.05;101164.69;2048740;28;20541;-74
2022/09/08 01:18:17;;;;;;;1.20;0.88;;;;;;;14.82;66.88;101167.94;2049471;28;20042;-74
2022/09/08 01:19:34;;;;;;;1.23;0.80;;;;;;;14.79;67.40;101170.41;2039851;29;20066;-74
2022/09/08 01:20:47;;;;;;;0.77;0.60;;;;;;;14.82;67.04;101167.94;2050279;28;20063;-74
2022/09/08 01:22:03;;;;;;;1.55;0.95;;;;;;;14.84;67.03;101171.13;2055703;28;20046;-74
2022/09/08 01:23:40;;;;;;;4.25;0.75;;;;;;;14.81;67.26;101177.13;2047932;28;20039;-74
2022/09/08 01:24:51;;;;;;;1.60;0.90;;;;;;;14.80;67.37;101175.53;2057547;28;20047;-74
2022/09/08 01:26:23;;;;;;;3.63;1.10;;;;;;;14.83;67.33;101179.56;2048305;28;20388;-76
2022/09/08 01:27:36;;;;;;;2.03;1.05;;;;;;;14.84;67.57;101175.75;2055508;28;20046;-74
2022/09/08 01:28:52;;;;;;;7.65;1.05;;;;;;;14.86;67.68;101181.69;2055671;28;20380;-74
2022/09/08 01:30:00;;;;;;;1.90;1.42;;;;;;;14.87;67.41;101179.78;2051454;28;20051;-74
2022/09/08 01:31:07;;;;;;;5.18;1.63;;;;;;;14.87;67.59;101180.59;2060132;28;20055;-74
2022/09/08 01:32:18;;;;;;;4.15;1.60;;;;;;;14.87;67.88;101182.50;2040982;28;20051;-74
2022/09/08 01:33:21;;;;;;;6.38;1.73;;;;;;;14.87;67.82;101182.50;2044840;28;20056;-73
2022/09/08 01:34:23;;;;;;;3.53;1.70;;;;;;;14.86;68.08;101180.88;2049016;28;20066;-74
2022/09/08 01:35:38;;;;;;;3.25;1.50;;;;;;;14.84;67.81;101178.47;2049281;28;20087;-75
2022/09/08 01:36:42;;;;;;;4.32;1.55;;;;;;;14.82;68.04;101183.38;2042787;29;20059;-74
2022/09/08 01:37:46;;;;;;;11.55;1.90;;;;;;;14.82;68.09;101177.97;2057794;28;20046;-75
2022/09/08 01:38:50;;;;;;;3.45;1.60;;;;;;;14.80;68.08;101180.94;2048561;28;20514;-73
2022/09/08 01:39:57;;;;;;;5.07;1.58;;;;;;;14.78;68.16;101179.63;2050956;28;20058;-74
2022/09/08 01:41:02;;;;;;;2.70;1.52;;;;;;;14.76;68.53;101179.13;2056778;28;20050;-74
2022/09/08 01:42:05;;;;;;;5.30;1.73;;;;;;;14.77;68.20;101175.31;2040980;29;20561;-74
2022/09/08 01:43:12;;;;;;;5.90;1.70;;;;;;;14.77;68.48;101183.44;2061996;28;20042;-74
2022/09/08 01:44:15;;;;;;;2.55;1.67;;;;;;;14.77;68.43;101176.13;2072476;28;20045;-74
2022/09/08 01:45:17;;;;;;;9.05;2.17;;;;;;;14.78;68.74;101174.22;2064492;28;20066;-74
2022/09/08 01:46:20;;;;;;;8.43;1.90;;;;;;;14.77;68.60;101178.03;2056926;28;20050;-74
2022/09/08 01:47:25;;;;;;;3.95;1.98;;;;;;;14.77;68.48;101175.31;2042365;28;20047;-74
2022/09/08 01:48:29;;;;;;;4.57;1.80;;;;;;;14.77;68.51;101168.00;2056881;28;20054;-73
2022/09/08 01:49:38;;;;;;;3.45;1.55;;;;;;;14.78;68.68;101171.50;2050335;28;20047;-73
2022/09/08 01:50:43;;;;;;;3.38;1.60;;;;;;;14.78;68.28;101168.78;2050043;28;20598;-73
2022/09/08 01:51:45;;;;;;;4.68;1.50;;;;;;;14.78;68.18;101168.78;2057439;28;20113;-75
2022/09/08 01:52:52;;;;;;;4.95;1.70;;;;;;;14.79;68.37;101176.63;2055582;28;20817;-73
2022/09/08 01:54:01;;;;;;;4.43;1.52;;;;;;;14.79;68.32;101173.13;2058194;28;20055;-74
2022/09/08 01:55:09;;;;;;;4.22;1.90;;;;;;;14.79;68.17;101176.63;2056808;28;20042;-74
2022/09/08 01:56:10;;;;;;;4.30;1.90;;;;;;;14.78;68.12;101176.91;2041799;28;20039;-73
2022/09/08 01:57:12;;;;;;;4.88;2.03;;;;;;;14.77;67.77;101167.19;2040712;29;20396;-72
2022/09/08 01:58:18;;;;;;;6.82;2.10;;;;;;;14.78;67.70;101166.88;2032469;29;20473;-73
2022/09/08 01:59:20;;;;;;;6.00;1.85;;;;;;;14.77;67.67;101159.88;2042521;28;20046;-73
2022/09/08 02:00:21;;;;;;;4.28;1.88;;;;;;;14.77;67.93;101162.56;2049112;29;20043;-73
2022/09/08 02:01:24;;;;;;;3.40;1.90;;;;;;;14.78;67.99;101155.25;2034051;28;20067;-73
2022/09/08 02:02:32;;;;;;;3.72;2.08;;;;;;;14.79;67.64;101162.31;2049714;28;20055;-74
2022/09/08 02:03:35;;;;;;;3.17;1.90;;;;;;;14.79;68.00;101159.59;2048760;28;20054;-74
2022/09/08 02:04:39;;;;;;;3.95;2.10;;;;;;;14.78;67.63;101160.66;2042181;28;20063;-73
2022/09/08 02:05:45;;;;;;;4.70;1.98;;;;;;;14.79;67.78;101162.31;2048573;28;20039;-73
2022/09/08 02:06:48;;;;;;;7.05;1.80;;;;;;;14.77;67.71;101159.88;2057494;28;20065;-73
2022/09/08 02:07:53;;;;;;;3.13;2.13;;;;;;;14.76;67.45;101157.47;2049334;28;20058;-73
2022/09/08 02:08:56;;;;;;;5.32;1.90;;;;;;;14.77;67.94;101165.28;2056290;28;20598;-73
2022/09/08 02:09:57;;;;;;;3.70;1.60;;;;;;;14.76;67.72;101166.38;2049391;28;20062;-73
2022/09/08 02:11:05;;;;;;;8.95;2.15;;;;;;;14.76;67.46;101157.47;2057148;28;20047;-72
2022/09/08 02:12:12;;;;;;;7.47;1.77;;;;;;;14.75;67.63;101155.84;2049334;28;20043;-73
2022/09/08 02:13:15;;;;;;;5.10;2.00;;;;;;;14.74;67.52;101160.44;2049050;28;20519;-72
2022/09/08 02:14:20;;;;;;;6.38;2.10;;;;;;;14.75;67.49;101156.66;2033706;29;20058;-73
2022/09/08 02:15:24;;;;;;;6.10;2.05;;;;;;;14.75;67.73;101156.66;2041484;28;20047;-72
2022/09/08 02:16:28;;;;;;;6.75;1.73;;;;;;;14.75;67.74;101163.97;2040421;29;20187;-73
2022/09/08 02:17:32;;;;;;;9.18;2.20;;;;;;;14.74;67.79;101165.06;2038043;28;20141;-73
2022/09/08 02:18:38;;;;;;;8.05;2.22;;;;;;;14.73;67.50;101163.47;2048603;28;20051;-73
2022/09/08 02:19:43;;;;;;;11.93;2.28;;;;;;;14.73;67.68;101158.84;2056897;28;20054;-73
2022/09/08 02:20:45;;;;;;;18.52;2.30;;;;;;;14.73;67.59;101164.25;2056632;28;20065;-73
2022/09/08 02:21:50;;;;;;;4.40;2.00;;;;;;;14.72;67.36;101161.84;2072946;28;20042;-73
2022/09/08 02:22:55;;;;;;;6.78;2.08;;;;;;;14.71;67.51;101161.03;2071728;28;20429;-72
2022/09/08 02:24:03;;;;;;;6.50;2.10;;;;;;;14.71;67.18;101161.03;2056290;28;20046;-74
2022/09/08 02:25:06;;;;;;;6.10;1.92;;;;;;;14.71;67.32;101160.22;2057796;28;20083;-72
2022/09/08 02:26:16;;;;;;;7.22;2.30;;;;;;;14.69;67.26;101159.72;2055835;28;20539;-73
2022/09/08 02:27:24;;;;;;;4.95;2.00;;;;;;;14.68;67.26;101161.63;2055100;28;20534;-73
2022/09/08 02:28:30;;;;;;;7.18;1.90;;;;;;;14.68;67.35;101161.63;2036711;28;20044;-72
2022/09/08 02:29:32;;;;;;;3.92;1.80;;;;;;;14.68;67.49;101169.75;2034110;29;20048;-73
2022/09/08 02:30:35;;;;;;;4.78;1.73;;;;;;;14.67;67.33;101164.63;2033466;28;20048;-74
2022/09/08 02:31:45;;;;;;;4.22;1.83;;;;;;;14.64;67.16;101163.31;2050947;28;20662;-76
2022/09/08 02:32:48;;;;;;;3.63;1.83;;;;;;;14.62;67.37;101170.91;2049947;28;20043;-73
2022/09/08 02:33:50;;;;;;;6.60;1.60;;;;;;;14.62;67.34;101159.28;2040452;28;20473;-73
2022/09/08 02:34:52;;;;;;;3.72;1.70;;;;;;;14.64;66.95;101170.63;2041218;28;20047;-72
2022/09/08 02:35:54;;;;;;;6.97;2.10;;;;;;;14.64;66.92;101170.63;2064816;28;20046;-73
2022/09/08 02:36:59;;;;;;;7.28;2.33;;;;;;;14.63;66.90;101169.81;2048402;28;20057;-73
2022/09/08 02:38:00;;;;;;;6.93;2.42;;;;;;;14.63;67.03;101159.00;2048730;29;20051;-74
2022/09/08 02:39:05;;;;;;;7.13;2.00;;;;;;;14.62;67.06;101153.84;2045823;28;20043;-73
2022/09/08 02:40:12;;;;;;;3.17;1.90;;;;;;;14.61;67.09;101163.88;2065352;28;20510;-74
2022/09/08 02:41:19;;;;;;;3.55;1.92;;;;;;;14.60;67.00;101170.41;2072032;28;20030;-73
2022/09/08 02:42:28;;;;;;;5.88;2.00;;;;;;;14.60;66.88;101173.91;2064691;28;20030;-72
2022/09/08 02:43:34;;;;;;;7.22;2.10;;;;;;;14.60;67.01;101171.19;2068807;28;20614;-72
2022/09/08 02:44:41;;;;;;;10.18;2.60;;;;;;;14.58;67.05;101178.78;2063134;28;20042;-72
2022/09/08 02:45:48;;;;;;;5.07;2.15;;;;;;;14.58;67.19;101167.97;2057139;28;20533;-72
2022/09/08 02:46:54;;;;;;;5.05;1.98;;;;;;;14.59;66.85;101174.19;2057586;28;20050;-72
2022/09/08 02:47:58;;;;;;;5.45;2.17;;;;;;;14.57;66.83;101177.19;2057140;28;20046;-72
2022/09/08 02:49:06;;;;;;;8.82;2.10;;;;;;;14.57;66.58;101177.19;2055658;28;20055;-73
2022/09/08 02:50:14;;;;;;;6.38;2.70;;;;;;;14.57;66.70;101166.38;2064598;28;20616;-73
2022/09/08 02:51:22;;;;;;;5.05;2.15;;;;;;;14.57;66.94;101171.78;2062804;28;20410;-73
2022/09/08 02:52:24;;;;;;;5.40;2.50;;;;;;;14.54;67.09;101171.56;2039944;29;20039;-72
2022/09/08 02:53:30;;;;;;;4.22;2.40;;;;;;;14.49;66.93;101169.69;2041978;28;20063;-72
2022/09/08 02:54:36;;;;;;;8.85;2.17;;;;;;;14.49;66.47;101163.47;2064591;28;20567;-71
2022/09/08 02:55:41;;;;;;;3.85;2.22;;;;;;;14.50;66.65;101171.31;2064476;28;20042;-71
2022/09/08 02:56:43;;;;;;;13.15;2.38;;;;;;;14.50;66.79;101165.91;2049233;28;20043;-73
2022/09/08 02:57:49;;;;;;;4.10;2.70;;;;;;;14.51;66.75;101172.94;2047505;28;20459;-73
2022/09/08 02:58:54;;;;;;;8.02;3.10;;;;;;;14.49;66.65;101164.25;2042212;28;20047;-73
2022/09/08 03:00:05;;;;;;;7.82;3.50;;;;;;;14.50;66.52;101165.06;2049491;28;20523;-73
2022/09/08 03:01:10;;;;;;;7.07;2.58;;;;;;;14.48;66.50;101161.88;2049161;28;20063;-72
2022/09/08 03:02:13;;;;;;;6.75;2.63;;;;;;;14.48;66.85;101168.06;2049173;28;20039;-74
2022/09/08 03:03:17;;;;;;;8.82;2.13;;;;;;;14.44;66.56;101160.81;2033565;29;20061;-74
2022/09/08 03:04:20;;;;;;;8.98;2.25;;;;;;;14.39;66.69;101158.97;2034820;28;20051;-73
2022/09/08 03:05:25;;;;;;;5.75;2.03;;;;;;;14.40;66.87;101170.59;2063818;28;20030;-73
2022/09/08 03:06:28;;;;;;;3.88;2.17;;;;;;;14.40;66.75;101162.50;2056444;28;20106;-73
2022/09/08 03:07:31;;;;;;;7.90;1.92;;;;;;;14.37;67.13;101158.47;2049547;28;20038;-73
2022/09/08 03:08:36;;;;;;;4.90;1.88;;;;;;;14.36;66.99;101154.16;2045657;28;20067;-74
2022/09/08 03:09:40;;;;;;;6.53;2.00;;;;;;;14.38;66.77;101160.09;2041482;28;20047;-74
2022/09/08 03:10:48;;;;;;;3.05;1.90;;;;;;;14.40;66.96;101157.88;2048094;29;20039;-74
2022/09/08 03:11:51;;;;;;;7.45;1.83;;;;;;;14.40;67.14;101155.19;2042207;28;20042;-74
2022/09/08 03:12:55;;;;;;;3.80;2.20;;;;;;;14.41;67.01;101153.28;2050010;28;20053;-74
2022/09/08 03:14:01;;;;;;;6.32;2.38;;;;;;;14.42;66.74;101155.69;2064798;28;20042;-73
2022/09/08 03:15:07;;;;;;;6.55;2.03;;;;;;;14.43;66.94;101157.31;2063829;28;20057;-75
2022/09/08 03:16:09;;;;;;;7.40;2.60;;;;;;;14.42;66.81;101158.41;2064332;28;20057;-74
2022/09/08 03:17:13;;;;;;;4.53;2.30;;;;;;;14.41;67.23;101156.81;2048075;29;20036;-73
2022/09/08 03:18:17;;;;;;;3.78;2.13;;;;;;;14.42;66.82;101157.59;2041064;29;20050;-74
2022/09/08 03:19:26;;;;;;;4.45;2.22;;;;;;;14.40;66.98;101155.19;2032143;28;20044;-73
2022/09/08 03:20:28;;;;;;;4.03;2.10;;;;;;;14.41;67.06;101164.09;2050616;28;20404;-73
2022/09/08 03:21:34;;;;;;;6.88;2.00;;;;;;;14.40;67.04;101157.88;2054935;28;20066;-74
2022/09/08 03:22:41;;;;;;;3.00;2.05;;;;;;;14.36;67.06;101152.25;2057223;28;20086;-74
2022/09/08 03:23:46;;;;;;;9.30;2.65;;;;;;;14.37;67.09;101163.88;2048575;28;20039;-73
2022/09/08 03:24:47;;;;;;;8.93;2.10;;;;;;;14.34;67.38;101156.34;2056483;28;20054;-75
2022/09/08 03:26:00;;;;;;;3.88;2.30;;;;;;;14.27;67.81;101161.28;2064691;28;20429;-73
2022/09/08 03:27:11;;;;;;;5.38;2.00;;;;;;;14.26;68.27;101159.69;2064822;28;20051;-74
2022/09/08 03:28:23;;;;;;;2.97;1.73;;;;;;;14.25;68.34;101156.19;2064474;28;20046;-74
2022/09/08 03:29:32;;;;;;;3.00;1.65;;;;;;;14.23;69.29;101160.25;2063158;28;20057;-74
2022/09/08 03:30:37;;;;;;;3.55;1.98;;;;;;;14.27;69.04;101155.88;2049607;28;20051;-74
2022/09/08 03:31:44;;;;;;;4.30;1.75;;;;;;;14.29;69.17;101153.69;2057546;28;20043;-74
2022/09/08 03:32:57;;;;;;;2.58;1.55;;;;;;;14.26;69.64;101151.56;2063693;28;20058;-74
2022/09/08 03:34:06;;;;;;;2.55;1.50;;;;;;;14.25;69.50;101149.94;2058161;28;20430;-74
2022/09/08 03:35:12;;;;;;;2.38;1.45;;;;;;;14.21;69.59;101147.00;2056404;28;20054;-73
2022/09/08 03:36:20;;;;;;;4.32;1.52;;;;;;;14.23;69.71;101154.84;2064268;28;20038;-73
2022/09/08 03:37:29;;;;;;;;;;;;;;;14.18;69.40;101147.59;2055465;28;20043;-74
2022/09/08 03:38:33;;;;;;;3.28;1.35;;;;;;;14.21;69.49;101152.44;2050330;28;19941;-74
2022/09/08 03:39:36;;;;;;;6.47;1.55;;;;;;;14.24;69.33;101153.75;2056367;28;20526;-74
2022/09/08 03:40:41;;;;;;;2.97;1.27;;;;;;;14.23;69.19;101155.66;2048412;28;20058;-74
2022/09/08 03:41:47;;;;;;;3.55;1.45;;;;;;;14.22;68.83;101151.34;2041667;28;20052;-74
2022/09/08 03:42:53;;;;;;;2.00;1.45;;;;;;;14.24;68.84;101146.44;2048670;28;20055;-74
2022/09/08 03:43:58;;;;;;;;;;;;;;;14.22;68.70;101147.81;2055688;28;20054;-74
2022/09/08 03:45:05;;;;;;;2.22;1.10;;;;;;;14.16;68.46;101146.28;2063167;28;19917;-74
2022/09/08 03:46:07;;;;;;;1.33;1.00;;;;;;;14.14;68.22;101146.56;2040068;29;20062;-76
2022/09/08 03:47:10;;;;;;;4.07;1.00;;;;;;;14.13;68.27;101145.75;2040055;28;20584;-72
2022/09/08 03:48:16;;;;;;;3.33;0.80;;;;;;;14.12;68.36;101149.56;2048330;28;20476;-71
2022/09/08 03:49:26;;;;;;;7.95;1.08;;;;;;;14.14;68.40;101150.06;2055990;28;20062;-71
2022/09/08 03:50:30;;;;;;;4.43;1.10;;;;;;;14.14;68.45;101147.38;2064628;28;20034;-72
2022/09/08 03:51:35;;;;;;;1.35;0.82;;;;;;;14.14;68.61;101151.97;2055585;28;20057;-71
2022/09/08 03:52:42;;;;;;;2.20;1.10;;;;;;;14.16;68.68;101149.78;2047625;28;20487;-71
2022/09/08 03:53:49;;;;;;;3.22;1.10;;;;;;;14.19;68.76;101143.81;2048883;28;20035;-72
2022/09/08 03:54:51;;;;;;;5.32;1.30;;;;;;;14.22;68.65;101148.66;2043075;29;20039;-72
2022/09/08 03:55:53;;;;;;;4.18;1.40;;;;;;;14.24;68.85;101142.94;2047389;28;20051;-68
2022/09/08 03:56:56;;;;;;;3.90;1.30;;;;;;;14.25;68.72;101137.25;2054618;28;20039;-69
2022/09/08 03:58:06;;;;;;;2.50;1.90;;;;;;;14.27;68.89;101139.66;2054521;28;20038;-71
2022/09/08 03:59:20;;;;;;;2.78;1.40;;;;;;;14.29;69.07;101138.28;2059068;28;20047;-71
2022/09/08 04:00:26;;;;;;;3.72;1.40;;;;;;;14.29;69.17;101134.78;2052876;28;20066;-71
2022/09/08 04:01:31;;;;;;;3.53;1.52;;;;;;;14.29;69.14;101132.88;2040366;28;20404;-71
2022/09/08 04:02:36;;;;;;;8.45;2.03;;;;;;;14.30;69.32;101139.06;2038893;29;20488;-70
2022/09/08 04:03:42;;;;;;;7.32;1.80;;;;;;;14.28;69.76;101139.38;2038741;29;20043;-71
2022/09/08 04:04:48;;;;;;;3.75;1.75;;;;;;;14.25;69.93;101137.25;2037374;28;20940;-71
2022/09/08 04:05:55;;;;;;;6.95;1.80;;;;;;;14.24;70.14;101134.81;2032382;29;20047;-71
2022/09/08 04:06:59;;;;;;;2.92;1.70;;;;;;;14.26;69.92;101133.44;2040163;28;20055;-71
2022/09/08 04:08:03;;;;;;;5.63;2.10;;;;;;;14.27;70.09;101134.25;2046950;28;20062;-71
2022/09/08 04:09:08;;;;;;;5.55;1.80;;;;;;;14.29;70.22;101132.06;2043282;28;20078;-71
2022/09/08 04:10:12;;;;;;;4.50;1.67;;;;;;;14.29;70.32;101132.06;2043287;28;20633;-71
2022/09/08 04:11:16;;;;;;;5.07;1.70;;;;;;;14.30;70.36;101130.97;2046357;28;20050;-71
2022/09/08 04:12:19;;;;;;;2.20;1.60;;;;;;;14.33;70.41;101133.09;2047210;28;20051;-71
2022/09/08 04:13:21;;;;;;;8.52;2.33;;;;;;;14.34;70.42;101132.81;2040587;28;20059;-71
2022/09/08 04:14:25;;;;;;;5.35;1.60;;;;;;;14.35;70.63;101137.13;2039227;29;20058;-71
2022/09/08 04:15:27;;;;;;;7.75;1.88;;;;;;;14.37;70.46;101128.69;2026105;29;20059;-71
2022/09/08 04:16:29;;;;;;;4.40;1.67;;;;;;;14.38;70.53;101135.75;2038917;28;20200;-71
2022/09/08 04:17:32;;;;;;;6.70;1.90;;;;;;;14.40;70.65;101136.25;2046496;28;20042;-72
2022/09/08 04:18:34;;;;;;;2.88;1.55;;;;;;;14.39;70.87;101129.22;2038901;28;20043;-71
2022/09/08 04:19:38;;;;;;;8.68;2.38;;;;;;;14.41;70.99;101129.75;2046630;28;20042;-71
2022/09/08 04:20:42;;;;;;;7.38;2.75;;;;;;;14.41;70.85;101146.00;2046454;28;20055;-71
2022/09/08 04:21:47;;;;;;;7.90;2.20;;;;;;;14.42;70.93;101141.38;2047731;28;20046;-71
2022/09/08 04:22:49;;;;;;;7.03;2.63;;;;;;;14.43;70.71;101141.06;2038481;28;20051;-72
2022/09/08 04:23:52;;;;;;;11.32;2.42;;;;;;;14.42;70.56;101131.34;2046711;28;20061;-71
2022/09/08 04:24:56;;;;;;;4.20;2.40;;;;;;;14.43;70.73;101143.78;2054344;28;20047;-73
2022/09/08 04:26:06;;;;;;;5.70;2.10;;;;;;;14.44;70.61;101145.41;2071463;28;20050;-71
2022/09/08 04:27:14;;;;;;;2.55;1.85;;;;;;;14.43;70.90;101135.66;2053111;28;20546;-71
2022/09/08 04:28:18;;;;;;;4.50;1.73;;;;;;;14.43;70.79;101142.97;2048496;28;20057;-70
2022/09/08 04:29:23;;;;;;;4.03;2.17;;;;;;;14.41;71.01;101137.03;2046577;28;20043;-71
2022/09/08 04:30:29;;;;;;;5.75;2.10;;;;;;;14.41;70.74;101140.56;2040172;28;20035;-71
2022/09/08 04:31:34;;;;;;;4.90;2.00;;;;;;;14.41;70.95;101146.00;2054041;28;20054;-73
2022/09/08 04:32:41;;;;;;;4.65;2.40;;;;;;;14.40;70.87;101136.25;2055240;28;20549;-71
2022/09/08 04:33:43;;;;;;;4.57;2.08;;;;;;;14.41;70.54;101145.16;2045503;29;20055;-73
2022/09/08 04:34:55;;;;;;;5.13;2.20;;;;;;;14.39;70.68;101137.34;2030770;28;20056;-73
2022/09/08 04:35:57;;;;;;;5.38;1.80;;;;;;;14.38;70.54;101141.16;2033039;29;20491;-73
2022/09/08 04:37:05;;;;;;;6.32;1.70;;;;;;;14.37;70.55;101145.75;2039280;28;20127;-73
2022/09/08 04:38:08;;;;;;;3.42;1.60;;;;;;;14.35;70.64;101136.31;2053995;28;20073;-72
2022/09/08 04:39:10;;;;;;;3.35;1.70;;;;;;;14.36;70.39;101148.75;2038796;28;20046;-73
2022/09/08 04:40:15;;;;;;;5.93;1.65;;;;;;;14.37;70.33;101139.53;2045908;29;20047;-74
2022/09/08 04:41:20;;;;;;;2.75;1.42;;;;;;;14.40;70.38;101143.56;2040279;28;20043;-72
2022/09/08 04:42:28;;;;;;;4.85;1.60;;;;;;;14.43;70.41;101143.78;2054599;28;20039;-72
2022/09/08 04:43:36;;;;;;;2.95;1.60;;;;;;;14.45;70.33;101141.59;2054318;28;20073;-73
2022/09/08 04:44:43;;;;;;;2.83;1.50;;;;;;;14.47;70.31;101134.00;2046982;28;20047;-72
2022/09/08 04:45:47;;;;;;;3.92;1.75;;;;;;;14.51;70.12;101129.66;2053633;28;20046;-73
2022/09/08 04:46:57;;;;;;;2.85;1.38;;;;;;;14.56;70.02;101135.00;2054954;28;20050;-74
2022/09/08 04:48:01;;;;;;;2.78;1.52;;;;;;;14.64;69.68;101130.03;2046365;28;20063;-72
2022/09/08 04:49:07;;;;;;;4.75;1.45;;;;;;;14.72;69.58;101129.34;2033499;28;20056;-75
2022/09/08 04:50:14;;;;;;;5.05;1.20;;;;;;;14.81;69.53;101136.53;2037916;28;20064;-73
2022/09/08 04:51:28;;;;;;;2.45;1.30;;;;;;;14.93;68.97;101135.28;2058597;28;20046;-73
2022/09/08 04:52:38;;;;;;;3.17;1.30;;;;;;;15.04;68.40;101137.56;2052623;28;20409;-72
2022/09/08 04:53:43;;;;;;;1.92;1.10;;;;;;;15.11;68.41;101120.13;2048930;28;20059;-72
2022/09/08 04:54:47;;;;;;;3.75;1.30;;;;;;;15.20;67.85;101131.91;2061055;28;20058;-72
2022/09/08 04:55:55;;;;;;;1.40;1.02;;;;;;;15.38;67.49;101130.25;2054003;28;20042;-72
2022/09/08 04:56:59;;;;;;;2.63;1.08;;;;;;;15.53;67.11;101124.56;2043235;28;20044;-73
2022/09/08 04:58:05;;;;;;;1.40;0.90;;;;;;;15.70;66.59;101134.91;2047383;28;20047;-72
2022/09/08 04:59:07;;;;;;;1.67;1.10;;;;;;;15.75;65.48;101126.66;2048344;28;20106;-72
2022/09/08 05:00:14;;;;;;;2.55;1.02;;;;;;;15.93;64.96;101131.19;2046624;28;20958;-72
2022/09/08 05:01:19;;;;;;;1.73;1.15;;;;;;;16.04;63.66;101128.28;2054776;28;20057;-72
2022/09/08 05:02:26;;;;;;;3.85;1.40;;;;;;;16.15;63.56;101140.56;2054181;28;20049;-73
2022/09/08 05:03:29;;;;;;;3.28;1.23;;;;;;;16.21;62.42;101126.56;2055042;28;20045;-72
2022/09/08 05:04:31;;;;;;;1.88;1.20;;;;;;;16.30;62.46;101137.53;2054421;28;20086;-72
2022/09/08 05:05:38;;;;;;;2.25;1.20;;;;;;;16.48;62.00;101124.13;2044811;28;20407;-72
2022/09/08 05:06:45;;;;;;;7.15;1.23;;;;;;;16.60;61.05;101127.13;2040812;28;20048;-73
2022/09/08 05:07:52;;;;;;;2.30;1.45;;;;;;;16.65;60.82;101127.81;2050843;28;20034;-72
2022/09/08 05:08:58;;;;;;;5.15;1.50;;;;;;;16.73;60.14;101126.28;2042486;28;20403;-72
2022/09/08 05:10:08;;;;;;;3.05;1.45;;;;;;;16.86;59.87;101135.53;2034191;29;20056;-72
2022/09/08 05:11:10;;;;;;;3.53;1.65;;;;;;;17.07;59.35;101125.00;2041659;28;20063;-72
2022/09/08 05:12:12;;;;;;;6.85;1.20;;;;;;;17.16;59.39;101123.16;2047559;28;20043;-72
2022/09/08 05:13:17;;;;;;;1.55;1.10;;;;;;;17.07;59.12;101117.66;2048541;28;20411;-71
2022/09/08 05:14:20;;;;;;;2.05;1.30;;;;;;;17.15;59.11;101121.56;2046022;29;20047;-73